Terminal Aerodrome Forecast
Issued by NWS

Home | Current Version | Previous Version | Text Only | Print | Product List | Glossary On
Versions: 1 2 3 4 5 6 7 8 9 10 11 12
000
FTUS42 KGSP 041139
TAFGMU
TAF
KGMU 041139Z 0412/0512 06005KT 4SM -RA BR OVC008
     FM041500 07008KT 2SM BR OVC008
      TEMPO 0415/0417 1SM RA BR OVC003
     FM041700 06006KT 1 1/2SM BR OVC008
      TEMPO 0417/0421 3/4SM RA BR OVC003
     FM042100 06007KT 1 1/2SM RA BR OVC003
     FM050000 05005KT 2SM -RA BR OVC003
     FM050700 03004KT 1 1/2SM BR OVC003=

USA.gov is the U.S. government's official web portal to all federal, state and local government web resources and services.